Nevsehir, Turkey
Current Conditions -  °F | °C
As of 3:20 PM on Wednesday 22 Oct 2014 (Local Time) from LTAZ Reporting Station
Scattered Clouds Scattered Clouds  
Wind Chill: 73°   Ceiling: Unl
Heat Index: 73°   Visibility: 6mi
Dew Point: 32°   Wind: 12mph
Humidity: 22%   Direction: 210°SSW
Pressure: 29.97"   Gusts: NA
Location:  38.63°N, 34.72°E
Report Text: LTAZ 221220Z 21010KT 9999 FEW040 SCT100 23/M00 Q1015
Loading
Personal Weather Stations






























Interactive Weather Map New forecast layout! Learn more

10-Day Weather Forecast

Advertisements
Track Severe Weather on mobile